sensor_id;sensor_type;location;lat;lon;timestamp;pressure;altitude;pressure_sealevel;temperature;humidity
11682;BME280;5897;42.640;23.310;2023-04-07T00:00:06;93625.16;;;2.86;51.81
11682;BME280;5897;42.640;23.310;2023-04-07T00:02:33;93616.75;;;2.80;52.39
11682;BME280;5897;42.640;23.310;2023-04-07T00:04:59;93627.44;;;2.84;52.79
11682;BME280;5897;42.640;23.310;2023-04-07T00:07:27;93619.44;;;2.87;52.25
11682;BME280;5897;42.640;23.310;2023-04-07T00:09:54;93617.91;;;2.83;51.90
11682;BME280;5897;42.640;23.310;2023-04-07T00:12:22;93615.22;;;2.90;51.98
11682;BME280;5897;42.640;23.310;2023-04-07T00:14:49;93624.03;;;2.80;52.50
11682;BME280;5897;42.640;23.310;2023-04-07T00:17:15;93616.75;;;2.80;51.70
11682;BME280;5897;42.640;23.310;2023-04-07T00:19:42;93607.63;;;2.85;52.14
11682;BME280;5897;42.640;23.310;2023-04-07T00:22:09;93612.94;;;2.92;52.66
11682;BME280;5897;42.640;23.310;2023-04-07T00:24:36;93615.63;;;2.88;51.53
11682;BME280;5897;42.640;23.310;2023-04-07T00:27:02;93617.53;;;2.84;52.55
11682;BME280;5897;42.640;23.310;2023-04-07T00:29:31;93620.19;;;2.84;52.82
11682;BME280;5897;42.640;23.310;2023-04-07T00:31:58;93607.25;;;2.79;51.49
11682;BME280;5897;42.640;23.310;2023-04-07T00:34:25;93608.75;;;2.84;51.63
11682;BME280;5897;42.640;23.310;2023-04-07T00:36:51;93620.97;;;2.88;50.19
11682;BME280;5897;42.640;23.310;2023-04-07T00:39:18;93622.09;;;2.94;54.57
11682;BME280;5897;42.640;23.310;2023-04-07T00:41:45;93604.53;;;2.97;53.77
11682;BME280;5897;42.640;23.310;2023-04-07T00:44:13;93615.22;;;2.93;50.59
11682;BME280;5897;42.640;23.310;2023-04-07T00:46:41;93613.69;;;2.99;54.44
11682;BME280;5897;42.640;23.310;2023-04-07T00:49:08;93614.47;;;2.89;52.39
11682;BME280;5897;42.640;23.310;2023-04-07T00:51:37;93615.22;;;3.00;56.76
11682;BME280;5897;42.640;23.310;2023-04-07T00:54:04;93617.09;;;3.10;53.29
11682;BME280;5897;42.640;23.310;2023-04-07T00:56:31;93603.75;;;3.10;56.65
11682;BME280;5897;42.640;23.310;2023-04-07T00:58:58;93612.16;;;3.05;53.11
11682;BME280;5897;42.640;23.310;2023-04-07T01:01:29;93608.31;;;3.06;52.85
11682;BME280;5897;42.640;23.310;2023-04-07T01:04:01;93612.50;;;3.11;51.94
11682;BME280;5897;42.640;23.310;2023-04-07T01:06:34;93606.06;;;3.01;50.53
11682;BME280;5897;42.640;23.310;2023-04-07T01:09:04;93603.75;;;3.10;52.92
11682;BME280;5897;42.640;23.310;2023-04-07T01:11:41;93599.56;;;3.02;52.27
11682;BME280;5897;42.640;23.310;2023-04-07T01:14:12;93603.38;;;3.05;51.59
11682;BME280;5897;42.640;23.310;2023-04-07T01:16:44;93604.13;;;3.12;51.47
11682;BME280;5897;42.640;23.310;2023-04-07T01:19:15;93618.22;;;3.06;51.34
11682;BME280;5897;42.640;23.310;2023-04-07T01:21:48;93597.69;;;2.99;51.46
11682;BME280;5897;42.640;23.310;2023-04-07T01:24:33;93599.22;;;2.97;52.32
11682;BME280;5897;42.640;23.310;2023-04-07T01:27:14;93606.06;;;2.94;52.28
11682;BME280;5897;42.640;23.310;2023-04-07T01:29:46;93596.59;;;2.79;52.70
11682;BME280;5897;42.640;23.310;2023-04-07T01:32:16;93597.34;;;2.83;53.08
11682;BME280;5897;42.640;23.310;2023-04-07T01:34:46;93610.69;;;2.83;53.30
11682;BME280;5897;42.640;23.310;2023-04-07T01:37:15;93591.22;;;2.86;52.16
11682;BME280;5897;42.640;23.310;2023-04-07T01:39:42;93594.66;;;2.87;52.54
11682;BME280;5897;42.640;23.310;2023-04-07T01:42:09;93592.34;;;2.89;52.00
11682;BME280;5897;42.640;23.310;2023-04-07T01:44:37;93582.84;;;2.84;51.73
11682;BME280;5897;42.640;23.310;2023-04-07T01:47:06;93593.13;;;2.89;51.82
11682;BME280;5897;42.640;23.310;2023-04-07T01:49:34;93590.09;;;2.91;52.17
11682;BME280;5897;42.640;23.310;2023-04-07T01:52:02;93590.06;;;2.94;51.84
11682;BME280;5897;42.640;23.310;2023-04-07T01:54:30;93588.91;;;2.95;52.24
11682;BME280;5897;42.640;23.310;2023-04-07T01:56:57;93582.78;;;2.98;51.52
11682;BME280;5897;42.640;23.310;2023-04-07T01:59:26;93597.66;;;3.03;50.62
11682;BME280;5897;42.640;23.310;2023-04-07T02:01:53;93585.44;;;3.12;50.12
11682;BME280;5897;42.640;23.310;2023-04-07T02:04:25;93566.41;;;3.00;50.48
11682;BME280;5897;42.640;23.310;2023-04-07T02:07:00;93569.06;;;3.03;50.36
11682;BME280;5897;42.640;23.310;2023-04-07T02:09:30;93571.38;;;3.01;49.92
11682;BME280;5897;42.640;23.310;2023-04-07T02:11:59;93573.31;;;2.90;50.31
11682;BME280;5897;42.640;23.310;2023-04-07T02:14:26;93572.09;;;3.09;49.65
11682;BME280;5897;42.640;23.310;2023-04-07T02:16:54;93574.78;;;3.05;49.84
11682;BME280;5897;42.640;23.310;2023-04-07T02:19:22;93563.31;;;3.12;52.77
11682;BME280;5897;42.640;23.310;2023-04-07T02:21:50;93539.72;;;3.00;50.48
11682;BME280;5897;42.640;23.310;2023-04-07T02:24:18;93570.88;;;3.24;50.01
11682;BME280;5897;42.640;23.310;2023-04-07T02:26:46;93575.13;;;3.21;50.25
11682;BME280;5897;42.640;23.310;2023-04-07T02:29:13;93561.75;;;3.18;53.18
11682;BME280;5897;42.640;23.310;2023-04-07T02:31:40;93573.16;;;3.25;51.05
11682;BME280;5897;42.640;23.310;2023-04-07T02:34:06;93572.41;;;3.28;53.58
11682;BME280;5897;42.640;23.310;2023-04-07T02:36:34;93575.03;;;3.35;52.62
11682;BME280;5897;42.640;23.310;2023-04-07T02:39:01;93580.78;;;3.27;54.27
11682;BME280;5897;42.640;23.310;2023-04-07T02:41:28;93580.78;;;3.30;50.53
11682;BME280;5897;42.640;23.310;2023-04-07T02:43:55;93572.41;;;3.28;53.88
11682;BME280;5897;42.640;23.310;2023-04-07T02:46:21;93575.78;;;3.32;50.63
11682;BME280;5897;42.640;23.310;2023-04-07T02:48:48;93577.75;;;3.25;50.72
11682;BME280;5897;42.640;23.310;2023-04-07T02:51:16;93574.25;;;3.35;54.05
11682;BME280;5897;42.640;23.310;2023-04-07T02:53:44;93560.19;;;3.31;52.55
11682;BME280;5897;42.640;23.310;2023-04-07T02:56:11;93583.75;;;3.46;52.99
11682;BME280;5897;42.640;23.310;2023-04-07T02:58:37;93579.94;;;3.44;50.59
11682;BME280;5897;42.640;23.310;2023-04-07T03:01:04;93578.47;;;3.29;51.00
11682;BME280;5897;42.640;23.310;2023-04-07T03:03:31;93587.63;;;3.38;51.02
11682;BME280;5897;42.640;23.310;2023-04-07T03:05:58;93585.69;;;3.39;50.56
11682;BME280;5897;42.640;23.310;2023-04-07T03:08:25;93582.97;;;3.46;50.13
11682;BME280;5897;42.640;23.310;2023-04-07T03:10:53;93593.63;;;3.49;50.10
11682;BME280;5897;42.640;23.310;2023-04-07T03:13:20;93586.81;;;3.41;49.78
11682;BME280;5897;42.640;23.310;2023-04-07T03:15:47;93589.91;;;3.36;50.08
11682;BME280;5897;42.640;23.310;2023-04-07T03:18:13;93587.19;;;3.43;50.20
11682;BME280;5897;42.640;23.310;2023-04-07T03:20:40;93592.97;;;3.31;50.77
11682;BME280;5897;42.640;23.310;2023-04-07T03:23:08;93590.69;;;3.33;50.37
11682;BME280;5897;42.640;23.310;2023-04-07T03:25:35;93591.84;;;3.29;50.67
11682;BME280;5897;42.640;23.310;2023-04-07T03:28:04;93589.16;;;3.32;50.61
11682;BME280;5897;42.640;23.310;2023-04-07T03:30:31;93584.59;;;3.29;50.46
11682;BME280;5897;42.640;23.310;2023-04-07T03:32:57;93586.13;;;3.27;50.38
11682;BME280;5897;42.640;23.310;2023-04-07T03:35:24;93597.56;;;3.27;50.76
11682;BME280;5897;42.640;23.310;2023-04-07T03:37:51;93585.00;;;3.24;50.76
11682;BME280;5897;42.640;23.310;2023-04-07T03:40:18;93577.03;;;3.17;51.24
11682;BME280;5897;42.640;23.310;2023-04-07T03:42:45;93577.03;;;3.17;51.28
11682;BME280;5897;42.640;23.310;2023-04-07T03:45:13;93573.25;;;3.11;51.99
11682;BME280;5897;42.640;23.310;2023-04-07T03:47:40;93569.41;;;3.16;51.94
11682;BME280;5897;42.640;23.310;2023-04-07T03:50:08;93578.19;;;3.09;51.94
11682;BME280;5897;42.640;23.310;2023-04-07T03:52:35;93571.66;;;3.21;51.80
11682;BME280;5897;42.640;23.310;2023-04-07T03:55:01;93580.44;;;3.21;52.27
11682;BME280;5897;42.640;23.310;2023-04-07T03:57:28;93577.75;;;3.28;51.78
11682;BME280;5897;42.640;23.310;2023-04-07T03:59:55;93575.84;;;3.22;52.42
11682;BME280;5897;42.640;23.310;2023-04-07T04:02:23;93579.69;;;3.17;52.22
11682;BME280;5897;42.640;23.310;2023-04-07T04:04:50;93569.44;;;3.09;52.99
11682;BME280;5897;42.640;23.310;2023-04-07T04:07:17;93585.06;;;3.03;52.84
11682;BME280;5897;42.640;23.310;2023-04-07T04:09:43;93588.56;;;2.86;53.53
11682;BME280;5897;42.640;23.310;2023-04-07T04:12:10;93586.66;;;2.87;53.64
11682;BME280;5897;42.640;23.310;2023-04-07T04:14:37;93587.03;;;2.96;53.26
11682;BME280;5897;42.640;23.310;2023-04-07T04:17:04;93581.28;;;2.97;53.25
11682;BME280;5897;42.640;23.310;2023-04-07T04:19:32;93599.97;;;2.90;52.50
11682;BME280;5897;42.640;23.310;2023-04-07T04:21:59;93591.94;;;2.97;53.06
11682;BME280;5897;42.640;23.310;2023-04-07T04:24:26;93593.47;;;2.98;52.88
11682;BME280;5897;42.640;23.310;2023-04-07T04:26:52;93601.47;;;3.05;52.44
11682;BME280;5897;42.640;23.310;2023-04-07T04:29:21;93600.00;;;2.87;52.20
11682;BME280;5897;42.640;23.310;2023-04-07T04:31:48;93593.06;;;3.07;52.58
11682;BME280;5897;42.640;23.310;2023-04-07T04:34:14;93599.13;;;3.14;52.35
11682;BME280;5897;42.640;23.310;2023-04-07T04:36:43;93607.91;;;3.15;51.92
11682;BME280;5897;42.640;23.310;2023-04-07T04:39:09;93593.44;;;3.09;52.30
11682;BME280;5897;42.640;23.310;2023-04-07T04:41:36;93599.13;;;3.14;52.19
11682;BME280;5897;42.640;23.310;2023-04-07T04:44:03;93600.25;;;3.20;51.44
11682;BME280;5897;42.640;23.310;2023-04-07T04:46:30;93610.13;;;3.30;51.83
11682;BME280;5897;42.640;23.310;2023-04-07T04:48:57;93604.41;;;3.35;51.19
11682;BME280;5897;42.640;23.310;2023-04-07T04:51:23;93614.31;;;3.31;51.35
11682;BME280;5897;42.640;23.310;2023-04-07T04:53:52;93610.50;;;3.39;51.26
11682;BME280;5897;42.640;23.310;2023-04-07T04:56:18;93609.69;;;3.42;50.76
11682;BME280;5897;42.640;23.310;2023-04-07T04:58:45;93603.94;;;3.51;50.02
11682;BME280;5897;42.640;23.310;2023-04-07T05:01:12;93611.88;;;3.68;49.89
11682;BME280;5897;42.640;23.310;2023-04-07T05:03:39;93618.31;;;3.78;50.43
11682;BME280;5897;42.640;23.310;2023-04-07T05:06:06;93622.00;;;3.94;49.37
11682;BME280;5897;42.640;23.310;2023-04-07T05:08:33;93615.47;;;4.02;49.10
11682;BME280;5897;42.640;23.310;2023-04-07T05:11:01;93623.78;;;4.15;48.87
11682;BME280;5897;42.640;23.310;2023-04-07T05:13:28;93626.84;;;4.17;47.92
11682;BME280;5897;42.640;23.310;2023-04-07T05:15:55;93628.34;;;4.18;48.96
11682;BME280;5897;42.640;23.310;2023-04-07T05:18:22;93629.31;;;4.45;47.52
11682;BME280;5897;42.640;23.310;2023-04-07T05:20:49;93628.88;;;4.50;47.78
11682;BME280;5897;42.640;23.310;2023-04-07T05:23:16;93637.22;;;4.55;47.70
11682;BME280;5897;42.640;23.310;2023-04-07T05:25:42;93638.31;;;4.61;48.48
11682;BME280;5897;42.640;23.310;2023-04-07T05:28:11;93641.56;;;4.86;47.08
11682;BME280;5897;42.640;23.310;2023-04-07T05:30:37;93645.06;;;4.80;46.93
11682;BME280;5897;42.640;23.310;2023-04-07T05:33:04;93633.69;;;4.69;48.51
11682;BME280;5897;42.640;23.310;2023-04-07T05:35:31;93636.56;;;4.88;52.04
11682;BME280;5897;42.640;23.310;2023-04-07T05:37:58;93644.91;;;4.94;52.93
11682;BME280;5897;42.640;23.310;2023-04-07T05:40:25;93642.88;;;5.05;53.92
11682;BME280;5897;42.640;23.310;2023-04-07T05:42:51;93645.06;;;5.17;54.23
11682;BME280;5897;42.640;23.310;2023-04-07T05:45:20;93641.25;;;5.14;54.27
11682;BME280;5897;42.640;23.310;2023-04-07T05:47:47;93642.53;;;5.03;54.40
11682;BME280;5897;42.640;23.310;2023-04-07T05:50:15;93644.44;;;5.02;54.77
11682;BME280;5897;42.640;23.310;2023-04-07T05:52:41;93636.91;;;4.90;55.42
11682;BME280;5897;42.640;23.310;2023-04-07T05:55:08;93656.22;;;5.08;55.30
11682;BME280;5897;42.640;23.310;2023-04-07T05:57:35;93652.78;;;5.11;55.32
11682;BME280;5897;42.640;23.310;2023-04-07T06:00:02;93650.63;;;5.33;54.30
11682;BME280;5897;42.640;23.310;2023-04-07T06:02:31;93651.72;;;5.39;53.31
11682;BME280;5897;42.640;23.310;2023-04-07T06:04:57;93655.59;;;5.34;54.22
11682;BME280;5897;42.640;23.310;2023-04-07T06:07:24;93650.97;;;5.38;54.62
11682;BME280;5897;42.640;23.310;2023-04-07T06:09:51;93644.75;;;5.45;54.93
11682;BME280;5897;42.640;23.310;2023-04-07T06:12:18;93650.16;;;5.75;54.18
11682;BME280;5897;42.640;23.310;2023-04-07T06:14:49;93618.00;;;5.71;53.25
11682;BME280;5897;42.640;23.310;2023-04-07T06:17:16;93646.72;;;6.04;52.80
11682;BME280;5897;42.640;23.310;2023-04-07T06:19:45;93647.69;;;6.17;52.47
11682;BME280;5897;42.640;23.310;2023-04-07T06:22:11;93642.16;;;6.28;54.67
11682;BME280;5897;42.640;23.310;2023-04-07T06:24:38;93642.72;;;6.42;58.93
11682;BME280;5897;42.640;23.310;2023-04-07T06:27:06;93626.16;;;6.47;50.35
11682;BME280;5897;42.640;23.310;2023-04-07T06:29:33;93644.88;;;6.51;54.04
11682;BME280;5897;42.640;23.310;2023-04-07T06:32:01;93646.66;;;6.61;51.87
11682;BME280;5897;42.640;23.310;2023-04-07T06:34:27;93645.03;;;6.67;52.59
11682;BME280;5897;42.640;23.310;2023-04-07T06:36:55;93635.56;;;6.59;57.09
11682;BME280;5897;42.640;23.310;2023-04-07T06:39:22;93640.38;;;6.44;46.28
11682;BME280;5897;42.640;23.310;2023-04-07T06:41:51;93631.63;;;6.14;45.04
11682;BME280;5897;42.640;23.310;2023-04-07T06:44:17;93643.41;;;6.23;47.79
11682;BME280;5897;42.640;23.310;2023-04-07T06:46:44;93649.38;;;6.31;45.50
11682;BME280;5897;42.640;23.310;2023-04-07T06:49:14;93650.06;;;6.12;44.81
11682;BME280;5897;42.640;23.310;2023-04-07T06:51:41;93646.75;;;6.01;45.19
11682;BME280;5897;42.640;23.310;2023-04-07T06:54:09;93647.47;;;6.05;46.28
11682;BME280;5897;42.640;23.310;2023-04-07T06:56:38;93647.44;;;6.08;44.10
11682;BME280;5897;42.640;23.310;2023-04-07T06:59:05;93655.19;;;5.99;43.90
11682;BME280;5897;42.640;23.310;2023-04-07T07:01:32;93643.06;;;5.91;47.59
11682;BME280;5897;42.640;23.310;2023-04-07T07:03:58;93648.53;;;6.11;47.61
11682;BME280;5897;42.640;23.310;2023-04-07T07:06:26;93651.06;;;5.95;46.11
11682;BME280;5897;42.640;23.310;2023-04-07T07:08:52;93654.38;;;5.72;44.29
11682;BME280;5897;42.640;23.310;2023-04-07T07:11:21;93649.72;;;5.80;49.72
11682;BME280;5897;42.640;23.310;2023-04-07T07:13:47;93656.75;;;5.97;44.90
11682;BME280;5897;42.640;23.310;2023-04-07T07:16:14;93644.13;;;5.97;44.10
11682;BME280;5897;42.640;23.310;2023-04-07T07:18:41;93653.44;;;5.89;44.67
11682;BME280;5897;42.640;23.310;2023-04-07T07:21:07;93662.56;;;5.95;45.04
11682;BME280;5897;42.640;23.310;2023-04-07T07:23:34;93653.25;;;6.03;44.33
11682;BME280;5897;42.640;23.310;2023-04-07T07:26:01;93647.47;;;6.31;48.77
11682;BME280;5897;42.640;23.310;2023-04-07T07:28:29;93664.28;;;6.62;46.51
11682;BME280;5897;42.640;23.310;2023-04-07T07:30:56;93667.16;;;6.74;48.54
11682;BME280;5897;42.640;23.310;2023-04-07T07:33:23;93683.47;;;6.83;43.51
11682;BME280;5897;42.640;23.310;2023-04-07T07:35:50;93669.06;;;6.74;43.13
11682;BME280;5897;42.640;23.310;2023-04-07T07:38:16;93679.41;;;6.98;44.46
11682;BME280;5897;42.640;23.310;2023-04-07T07:40:43;93676.78;;;6.95;43.94
11682;BME280;5897;42.640;23.310;2023-04-07T07:43:11;93682.38;;;7.04;46.29
11682;BME280;5897;42.640;23.310;2023-04-07T07:45:39;93683.66;;;6.73;41.59
11682;BME280;5897;42.640;23.310;2023-04-07T07:48:06;93689.69;;;6.80;42.56
11682;BME280;5897;42.640;23.310;2023-04-07T07:50:32;93676.13;;;6.87;50.78
11682;BME280;5897;42.640;23.310;2023-04-07T07:52:59;93689.56;;;6.87;43.35
11682;BME280;5897;42.640;23.310;2023-04-07T07:55:26;93693.22;;;6.74;42.13
11682;BME280;5897;42.640;23.310;2023-04-07T07:57:53;93689.44;;;6.45;43.92
11682;BME280;5897;42.640;23.310;2023-04-07T08:00:20;93696.72;;;6.44;43.48
11682;BME280;5897;42.640;23.310;2023-04-07T08:02:49;93692.88;;;6.45;45.05
11682;BME280;5897;42.640;23.310;2023-04-07T08:05:16;93685.47;;;6.53;44.76
11682;BME280;5897;42.640;23.310;2023-04-07T08:07:43;93677.03;;;6.54;43.86
11682;BME280;5897;42.640;23.310;2023-04-07T08:10:11;93684.78;;;6.75;44.38
11682;BME280;5897;42.640;23.310;2023-04-07T08:12:38;93683.41;;;6.87;43.31
11682;BME280;5897;42.640;23.310;2023-04-07T08:15:05;93663.75;;;7.16;44.73
11682;BME280;5897;42.640;23.310;2023-04-07T08:17:34;93691.13;;;7.31;40.03
11682;BME280;5897;42.640;23.310;2023-04-07T08:20:04;93691.13;;;7.31;40.38
11682;BME280;5897;42.640;23.310;2023-04-07T08:22:31;93683.91;;;7.47;42.66
11682;BME280;5897;42.640;23.310;2023-04-07T08:24:58;93688.97;;;7.65;41.07
11682;BME280;5897;42.640;23.310;2023-04-07T08:27:25;93687.38;;;7.87;41.86
11682;BME280;5897;42.640;23.310;2023-04-07T08:29:58;93688.56;;;8.05;40.58
11682;BME280;5897;42.640;23.310;2023-04-07T08:32:24;93689.66;;;8.08;39.88
11682;BME280;5897;42.640;23.310;2023-04-07T08:34:54;93687.88;;;7.82;39.06
11682;BME280;5897;42.640;23.310;2023-04-07T08:37:22;93687.44;;;7.83;41.07
11682;BME280;5897;42.640;23.310;2023-04-07T08:39:49;93683.44;;;7.91;43.20
11682;BME280;5897;42.640;23.310;2023-04-07T08:42:17;93690.69;;;7.94;43.41
11682;BME280;5897;42.640;23.310;2023-04-07T08:44:46;93692.81;;;8.03;40.32
11682;BME280;5897;42.640;23.310;2023-04-07T08:47:14;93687.00;;;7.85;39.05
11682;BME280;5897;42.640;23.310;2023-04-07T08:49:44;93684.63;;;7.90;40.24
11682;BME280;5897;42.640;23.310;2023-04-07T08:52:13;93695.44;;;8.06;38.79
11682;BME280;5897;42.640;23.310;2023-04-07T08:54:44;93687.00;;;8.24;40.13
11682;BME280;5897;42.640;23.310;2023-04-07T08:57:10;93686.09;;;8.66;38.72
11682;BME280;5897;42.640;23.310;2023-04-07T08:59:39;93683.84;;;8.80;37.77
11682;BME280;5897;42.640;23.310;2023-04-07T09:02:11;93686.97;;;8.95;37.90
11682;BME280;5897;42.640;23.310;2023-04-07T09:04:39;93686.88;;;8.98;38.08
11682;BME280;5897;42.640;23.310;2023-04-07T09:07:06;93683.31;;;9.17;39.26
11682;BME280;5897;42.640;23.310;2023-04-07T09:09:33;93693.91;;;9.40;37.06
11682;BME280;5897;42.640;23.310;2023-04-07T09:12:01;93685.91;;;9.37;36.56
11682;BME280;5897;42.640;23.310;2023-04-07T09:14:28;93677.94;;;9.90;37.66
11682;BME280;5897;42.640;23.310;2023-04-07T09:16:55;93674.72;;;10.36;35.88
11682;BME280;5897;42.640;23.310;2023-04-07T09:19:23;93672.09;;;10.20;34.29
11682;BME280;5897;42.640;23.310;2023-04-07T09:21:51;93661.69;;;10.06;36.04
11682;BME280;5897;42.640;23.310;2023-04-07T09:24:22;93674.16;;;10.16;34.99
11682;BME280;5897;42.640;23.310;2023-04-07T09:26:50;93677.03;;;10.09;35.10
11682;BME280;5897;42.640;23.310;2023-04-07T09:29:20;93667.28;;;9.99;34.82
11682;BME280;5897;42.640;23.310;2023-04-07T09:31:48;93678.03;;;10.15;36.14
11682;BME280;5897;42.640;23.310;2023-04-07T09:34:26;93654.25;;;9.82;36.28
11682;BME280;5897;42.640;23.310;2023-04-07T09:36:53;93681.50;;;9.87;36.10
11682;BME280;5897;42.640;23.310;2023-04-07T09:39:21;93679.84;;;9.77;35.23
11682;BME280;5897;42.640;23.310;2023-04-07T09:41:49;93678.38;;;9.60;36.55
11682;BME280;5897;42.640;23.310;2023-04-07T09:44:16;93688.75;;;9.46;36.78
11682;BME280;5897;42.640;23.310;2023-04-07T09:46:51;93689.63;;;9.27;37.03
11682;BME280;5897;42.640;23.310;2023-04-07T09:49:19;93695.78;;;9.27;37.76
11682;BME280;5897;42.640;23.310;2023-04-07T09:51:56;93687.25;;;9.45;38.71
11682;BME280;5897;42.640;23.310;2023-04-07T09:54:32;93688.56;;;9.53;37.46
11682;BME280;5897;42.640;23.310;2023-04-07T09:57:00;93693.38;;;9.45;37.12
11682;BME280;5897;42.640;23.310;2023-04-07T09:59:27;93689.56;;;9.14;35.93
11682;BME280;5897;42.640;23.310;2023-04-07T10:01:56;93690.75;;;9.13;37.66
11682;BME280;5897;42.640;23.310;2023-04-07T10:04:23;93679.56;;;8.99;37.86
11682;BME280;5897;42.640;23.310;2023-04-07T10:06:51;93696.47;;;9.15;37.85
11682;BME280;5897;42.640;23.310;2023-04-07T10:09:18;93690.69;;;9.45;38.33
11682;BME280;5897;42.640;23.310;2023-04-07T10:11:45;93693.28;;;9.93;37.34
11682;BME280;5897;42.640;23.310;2023-04-07T10:14:13;93684.97;;;10.41;36.45
11682;BME280;5897;42.640;23.310;2023-04-07T10:16:41;93688.25;;;10.61;35.95
11682;BME280;5897;42.640;23.310;2023-04-07T10:19:10;93685.22;;;10.47;36.48
11682;BME280;5897;42.640;23.310;2023-04-07T10:21:39;93700.06;;;10.14;34.96
11682;BME280;5897;42.640;23.310;2023-04-07T10:24:18;93696.28;;;10.11;34.86
11682;BME280;5897;42.640;23.310;2023-04-07T10:26:55;93687.88;;;9.93;35.07
11682;BME280;5897;42.640;23.310;2023-04-07T10:29:23;93694.25;;;9.99;35.64
11682;BME280;5897;42.640;23.310;2023-04-07T10:31:51;93680.91;;;9.80;36.76
11682;BME280;5897;42.640;23.310;2023-04-07T10:37:21;93703.06;;;9.87;36.64
11682;BME280;5897;42.640;23.310;2023-04-07T10:39:49;93696.06;;;9.61;36.98
11682;BME280;5897;42.640;23.310;2023-04-07T10:42:44;93690.56;;;9.20;37.10
11682;BME280;5897;42.640;23.310;2023-04-07T10:45:11;93719.00;;;8.89;36.85
11682;BME280;5897;42.640;23.310;2023-04-07T10:48:08;93697.50;;;8.38;38.12
11682;BME280;5897;42.640;23.310;2023-04-07T10:50:35;93701.97;;;8.60;38.94
11682;BME280;5897;42.640;23.310;2023-04-07T10:53:08;93701.16;;;8.63;38.49
11682;BME280;5897;42.640;23.310;2023-04-07T10:55:37;93699.31;;;8.76;39.92
11682;BME280;5897;42.640;23.310;2023-04-07T10:58:22;93708.41;;;8.82;41.84
11682;BME280;5897;42.640;23.310;2023-04-07T11:01:17;93700.84;;;8.93;43.20
11682;BME280;5897;42.640;23.310;2023-04-07T11:03:53;93705.47;;;8.77;43.51
11682;BME280;5897;42.640;23.310;2023-04-07T11:06:20;93709.16;;;8.67;43.77
11682;BME280;5897;42.640;23.310;2023-04-07T11:08:48;93713.06;;;8.82;43.45
11682;BME280;5897;42.640;23.310;2023-04-07T11:11:34;93712.63;;;8.83;46.75
11682;BME280;5897;42.640;23.310;2023-04-07T11:14:01;93707.06;;;9.06;47.99
11682;BME280;5897;42.640;23.310;2023-04-07T11:16:35;93714.22;;;9.13;48.47
11682;BME280;5897;42.640;23.310;2023-04-07T11:19:02;93711.53;;;9.29;48.48
11682;BME280;5897;42.640;23.310;2023-04-07T11:21:29;93713.44;;;9.44;48.11
11682;BME280;5897;42.640;23.310;2023-04-07T11:23:57;93709.53;;;9.61;50.46
11682;BME280;5897;42.640;23.310;2023-04-07T11:26:24;93716.13;;;9.89;43.96
11682;BME280;5897;42.640;23.310;2023-04-07T11:28:53;93716.38;;;10.23;44.59
11682;BME280;5897;42.640;23.310;2023-04-07T11:31:23;93720.78;;;10.17;42.00
11682;BME280;5897;42.640;23.310;2023-04-07T11:33:53;93719.94;;;10.20;40.39
11682;BME280;5897;42.640;23.310;2023-04-07T11:36:27;93716.03;;;10.21;42.00
11682;BME280;5897;42.640;23.310;2023-04-07T11:38:57;93723.06;;;10.18;41.03
11682;BME280;5897;42.640;23.310;2023-04-07T11:41:24;93716.38;;;9.94;42.47
11682;BME280;5897;42.640;23.310;2023-04-07T11:44:05;93720.88;;;10.13;42.40
11682;BME280;5897;42.640;23.310;2023-04-07T11:46:32;93717.22;;;10.20;41.79
11682;BME280;5897;42.640;23.310;2023-04-07T11:49:10;93718.00;;;10.33;40.95
11682;BME280;5897;42.640;23.310;2023-04-07T11:51:37;93718.44;;;10.19;41.30
11682;BME280;5897;42.640;23.310;2023-04-07T11:54:05;93718.84;;;10.17;42.26
11682;BME280;5897;42.640;23.310;2023-04-07T11:56:43;93713.03;;;10.19;42.51
11682;BME280;5897;42.640;23.310;2023-04-07T11:59:19;93715.41;;;10.29;42.40
11682;BME280;5897;42.640;23.310;2023-04-07T12:01:47;93707.34;;;10.54;42.08
11682;BME280;5897;42.640;23.310;2023-04-07T12:04:15;93714.19;;;10.59;42.25
11682;BME280;5897;42.640;23.310;2023-04-07T12:06:42;93727.22;;;10.60;42.99
11682;BME280;5897;42.640;23.310;2023-04-07T12:09:27;93715.03;;;10.93;42.16
11682;BME280;5897;42.640;23.310;2023-04-07T12:11:54;93706.94;;;10.93;41.78
11682;BME280;5897;42.640;23.310;2023-04-07T12:14:22;93703.88;;;11.16;41.11
11682;BME280;5897;42.640;23.310;2023-04-07T12:16:49;93701.81;;;11.33;41.40
11682;BME280;5897;42.640;23.310;2023-04-07T12:19:17;93704.00;;;11.25;40.57
11682;BME280;5897;42.640;23.310;2023-04-07T12:21:44;93703.47;;;11.18;38.99
11682;BME280;5897;42.640;23.310;2023-04-07T12:24:10;93717.75;;;11.18;40.47
11682;BME280;5897;42.640;23.310;2023-04-07T12:26:38;93712.75;;;11.29;40.38
11682;BME280;5897;42.640;23.310;2023-04-07T12:29:05;93708.06;;;11.42;40.57
11682;BME280;5897;42.640;23.310;2023-04-07T12:31:32;93713.72;;;11.23;39.53
11682;BME280;5897;42.640;23.310;2023-04-07T12:33:59;93714.06;;;11.12;40.46
11682;BME280;5897;42.640;23.310;2023-04-07T12:36:26;93701.53;;;11.18;39.53
11682;BME280;5897;42.640;23.310;2023-04-07T12:38:55;93714.94;;;11.09;40.66
11682;BME280;5897;42.640;23.310;2023-04-07T12:41:22;93704.75;;;11.13;40.35
11682;BME280;5897;42.640;23.310;2023-04-07T12:43:50;93717.03;;;11.39;40.46
11682;BME280;5897;42.640;23.310;2023-04-07T12:46:18;93712.88;;;11.72;39.66
11682;BME280;5897;42.640;23.310;2023-04-07T12:48:45;93711.78;;;11.82;39.06
11682;BME280;5897;42.640;23.310;2023-04-07T12:51:13;93724.59;;;11.69;38.97
11682;BME280;5897;42.640;23.310;2023-04-07T12:53:40;93721.13;;;11.69;39.12
11682;BME280;5897;42.640;23.310;2023-04-07T12:56:07;93695.56;;;11.57;37.93
11682;BME280;5897;42.640;23.310;2023-04-07T12:58:33;93717.16;;;11.61;39.20
11682;BME280;5897;42.640;23.310;2023-04-07T13:01:02;93724.25;;;11.67;38.64
11682;BME280;5897;42.640;23.310;2023-04-07T13:03:28;93719.72;;;11.52;38.79
11682;BME280;5897;42.640;23.310;2023-04-07T13:05:55;93723.09;;;11.43;38.99
11682;BME280;5897;42.640;23.310;2023-04-07T13:08:25;93726.06;;;11.11;39.79
11682;BME280;5897;42.640;23.310;2023-04-07T13:10:53;93708.75;;;11.09;40.10
11682;BME280;5897;42.640;23.310;2023-04-07T13:13:20;93707.50;;;10.76;41.52
11682;BME280;5897;42.640;23.310;2023-04-07T13:15:47;93729.63;;;10.83;41.21
11682;BME280;5897;42.640;23.310;2023-04-07T13:18:15;93718.72;;;10.74;40.51